Time;durP1;ratioP1;P1;durP2;ratioP2;P2;SDS_P1;SDS_P2;PMS_P1;PMS_P2;Temp;Humidity;BMP_temperature;BMP_pressure;BME280_temperature;BME280_humidity;BME280_pressure;Samples;Min_cycle;Max_cycle;Signal;HPM_P1;HPM_P2
2021/04/07 00:01:36;;;;;;;4.60;1.20;;;;;;;;;;5058848;28;33208;-72
2021/04/07 00:04:01;;;;;;;9.77;3.40;;;;;;;;;;5058973;28;31487;-72
2021/04/07 00:06:27;;;;;;;8.10;1.88;;;;;;;;;;5059776;28;32517;-72
2021/04/07 00:08:53;;;;;;;5.78;1.40;;;;;;;;;;5057779;28;32415;-72
2021/04/07 00:11:18;;;;;;;5.70;1.13;;;;;;;;;;5058253;28;32310;-72
2021/04/07 00:13:45;;;;;;;8.00;1.25;;;;;;;;;;5057572;28;31781;-72
2021/04/07 00:16:11;;;;;;;6.43;1.33;;;;;;;;;;5057684;28;31963;-72
2021/04/07 00:18:36;;;;;;;5.10;1.45;;;;;;;;;;5057523;28;32148;-72
2021/04/07 00:21:02;;;;;;;6.47;1.20;;;;;;;;;;5055391;28;33052;-72
2021/04/07 00:23:28;;;;;;;6.35;1.75;;;;;;;;;;5057567;28;31910;-71
2021/04/07 00:25:54;;;;;;;6.57;1.35;;;;;;;;;;5056769;28;31248;-72
2021/04/07 00:28:21;;;;;;;9.50;1.60;;;;;;;;;;5057229;28;32627;-71
2021/04/07 00:30:47;;;;;;;9.07;1.90;;;;;;;;;;5055334;28;31830;-72
2021/04/07 00:33:13;;;;;;;7.82;1.38;;;;;;;;;;5058488;28;31436;-72
2021/04/07 00:35:40;;;;;;;10.40;1.45;;;;;;;;;;5057989;28;31983;-71
2021/04/07 00:38:06;;;;;;;6.85;1.58;;;;;;;;;;5057873;28;33091;-71
2021/04/07 00:40:32;;;;;;;9.10;1.70;;;;;;;;;;5057667;28;32095;-72
2021/04/07 00:42:59;;;;;;;5.70;1.40;;;;;;;;;;5058516;28;31870;-72
2021/04/07 00:45:24;;;;;;;9.98;1.85;;;;;;;;;;5057725;28;31602;-72
2021/04/07 00:47:54;;;;;;;5.82;1.10;;;;;;;;;;5058472;28;32514;-72
2021/04/07 00:50:21;;;;;;;6.97;1.70;;;;;;;;;;5064356;28;33162;-72
2021/04/07 00:52:47;;;;;;;11.40;2.08;;;;;;;;;;5065537;28;30778;-72
2021/04/07 00:55:18;;;;;;;7.65;1.67;;;;;;;;;;5070796;28;31191;-72
2021/04/07 00:57:45;;;;;;;8.77;1.30;;;;;;;;;;5077270;28;34012;-72
2021/04/07 01:00:11;;;;;;;8.43;2.22;;;;;;;;;;5062146;28;33098;-72
2021/04/07 01:02:40;;;;;;;5.82;1.30;;;;;;;;;;5057476;28;31862;-72
2021/04/07 01:05:07;;;;;;;6.55;1.25;;;;;;;;;;5057915;28;32068;-71
2021/04/07 01:07:33;;;;;;;10.00;1.40;;;;;;;;;;5057122;28;32589;-71
2021/04/07 01:09:59;;;;;;;7.07;1.63;;;;;;;;;;5057157;28;33234;-72
2021/04/07 01:12:25;;;;;;;8.88;1.33;;;;;;;;;;5057317;28;32863;-71
2021/04/07 01:14:51;;;;;;;4.65;1.10;;;;;;;;;;5057433;28;31138;-72
2021/04/07 01:17:18;;;;;;;2.80;1.08;;;;;;;;;;5058230;28;32605;-71
2021/04/07 01:19:44;;;;;;;4.22;1.23;;;;;;;;;;5055792;28;32293;-72
2021/04/07 01:22:10;;;;;;;3.88;0.82;;;;;;;;;;5056808;28;31920;-72
2021/04/07 01:24:35;;;;;;;3.70;1.15;;;;;;;;;;5057520;28;32950;-72
2021/04/07 01:27:01;;;;;;;9.55;1.27;;;;;;;;;;5057562;28;39105;-71
2021/04/07 01:29:28;;;;;;;1.33;0.70;;;;;;;;;;5055147;28;32247;-71
2021/04/07 01:31:55;;;;;;;4.68;0.73;;;;;;;;;;5057820;28;32713;-71
2021/04/07 01:34:25;;;;;;;6.55;1.15;;;;;;;;;;5061284;28;32750;-71
2021/04/07 01:36:51;;;;;;;3.38;0.80;;;;;;;;;;5061021;28;33574;-71
2021/04/07 01:39:17;;;;;;;5.18;1.40;;;;;;;;;;5058979;28;33300;-71
2021/04/07 01:41:44;;;;;;;5.53;1.33;;;;;;;;;;5060542;28;31954;-71
2021/04/07 01:44:10;;;;;;;3.75;1.08;;;;;;;;;;5060281;28;31875;-72
2021/04/07 01:46:37;;;;;;;5.35;0.90;;;;;;;;;;5060187;28;34053;-71
2021/04/07 01:49:04;;;;;;;5.60;1.27;;;;;;;;;;5059800;28;33218;-71
2021/04/07 01:51:30;;;;;;;4.55;1.15;;;;;;;;;;5058739;28;32871;-71
2021/04/07 01:54:01;;;;;;;4.63;0.88;;;;;;;;;;5059293;28;32265;-70
2021/04/07 01:56:26;;;;;;;4.45;1.00;;;;;;;;;;5061062;28;32537;-71
2021/04/07 01:59:05;;;;;;;2.05;0.90;;;;;;;;;;5061615;28;32279;-71
2021/04/07 02:01:35;;;;;;;2.33;0.68;;;;;;;;;;5058923;28;31934;-71
2021/04/07 02:04:01;;;;;;;3.15;0.75;;;;;;;;;;5060110;28;33457;-71
2021/04/07 02:06:26;;;;;;;5.35;1.30;;;;;;;;;;5057926;28;32183;-72
2021/04/07 02:08:52;;;;;;;4.72;1.80;;;;;;;;;;5059201;28;32356;-72
2021/04/07 02:11:17;;;;;;;3.75;1.10;;;;;;;;;;5059807;28;32839;-71
2021/04/07 02:13:43;;;;;;;5.25;1.10;;;;;;;;;;5060683;28;31729;-71
2021/04/07 02:16:10;;;;;;;5.78;1.13;;;;;;;;;;5057854;28;32634;-71
2021/04/07 02:18:36;;;;;;;3.08;0.98;;;;;;;;;;5058828;28;32396;-70
2021/04/07 02:21:01;;;;;;;4.55;1.00;;;;;;;;;;5059034;28;31921;-70
2021/04/07 02:23:27;;;;;;;6.60;1.42;;;;;;;;;;5058776;28;32678;-70
2021/04/07 02:25:53;;;;;;;5.18;1.00;;;;;;;;;;5059252;28;32694;-70
2021/04/07 02:28:19;;;;;;;2.70;0.70;;;;;;;;;;5060519;28;33201;-70
2021/04/07 02:30:45;;;;;;;6.95;1.30;;;;;;;;;;5059478;28;31671;-70
2021/04/07 02:33:10;;;;;;;4.50;1.08;;;;;;;;;;5059550;28;32977;-71
2021/04/07 02:35:36;;;;;;;4.25;1.20;;;;;;;;;;5060096;28;32609;-70
2021/04/07 02:38:02;;;;;;;3.03;0.77;;;;;;;;;;5060461;28;31111;-71
2021/04/07 02:40:27;;;;;;;8.77;1.10;;;;;;;;;;5059369;28;31838;-70
2021/04/07 02:42:53;;;;;;;4.65;0.98;;;;;;;;;;5059749;28;33042;-70
2021/04/07 02:45:19;;;;;;;3.83;0.95;;;;;;;;;;5059154;28;32258;-71
2021/04/07 02:47:44;;;;;;;6.97;1.10;;;;;;;;;;5058138;28;30483;-71
2021/04/07 02:50:10;;;;;;;4.78;1.10;;;;;;;;;;5059478;28;32871;-70
2021/04/07 02:52:36;;;;;;;3.40;0.90;;;;;;;;;;5060263;28;32584;-71
2021/04/07 02:55:02;;;;;;;7.47;0.90;;;;;;;;;;5059351;28;32787;-70
2021/04/07 02:57:27;;;;;;;5.60;0.88;;;;;;;;;;5058383;28;32032;-71
2021/04/07 02:59:53;;;;;;;3.67;1.17;;;;;;;;;;5057160;28;31958;-71
2021/04/07 03:02:19;;;;;;;9.63;1.35;;;;;;;;;;5057634;28;33454;-71
2021/04/07 03:04:44;;;;;;;4.30;1.23;;;;;;;;;;5057360;28;32353;-71
2021/04/07 03:07:10;;;;;;;4.10;1.73;;;;;;;;;;5059799;28;32293;-70
2021/04/07 03:09:36;;;;;;;5.43;1.20;;;;;;;;;;5058601;28;32889;-71
2021/04/07 03:12:01;;;;;;;13.68;1.80;;;;;;;;;;5059070;28;32096;-70
2021/04/07 03:14:27;;;;;;;8.02;1.30;;;;;;;;;;5059202;28;32638;-71
2021/04/07 03:16:53;;;;;;;4.68;1.35;;;;;;;;;;5059409;28;32295;-70
2021/04/07 03:19:18;;;;;;;8.68;1.30;;;;;;;;;;5058499;28;30458;-70
2021/04/07 03:21:44;;;;;;;5.82;1.15;;;;;;;;;;5058537;28;32694;-71
2021/04/07 03:24:10;;;;;;;6.10;1.05;;;;;;;;;;5058878;28;32670;-70
2021/04/07 03:26:35;;;;;;;7.88;1.40;;;;;;;;;;5057542;28;31787;-71
2021/04/07 03:29:01;;;;;;;9.25;1.35;;;;;;;;;;5057914;28;30332;-70
2021/04/07 03:31:27;;;;;;;11.48;1.50;;;;;;;;;;5059314;28;32694;-70
2021/04/07 03:33:53;;;;;;;9.70;1.70;;;;;;;;;;5059571;28;33576;-71
2021/04/07 03:36:18;;;;;;;6.45;2.20;;;;;;;;;;5059326;28;32205;-70
2021/04/07 03:38:44;;;;;;;10.55;1.95;;;;;;;;;;5057877;28;31912;-72
2021/04/07 03:41:10;;;;;;;4.20;1.38;;;;;;;;;;5053651;28;32181;-71
2021/04/07 03:43:35;;;;;;;11.68;2.03;;;;;;;;;;5055945;28;32241;-71
2021/04/07 03:46:01;;;;;;;10.13;1.83;;;;;;;;;;5056173;28;32166;-71
2021/04/07 03:48:28;;;;;;;10.73;1.42;;;;;;;;;;5056919;28;32637;-71
2021/04/07 03:50:54;;;;;;;8.80;1.92;;;;;;;;;;5059035;28;32188;-71
2021/04/07 03:53:20;;;;;;;6.10;1.35;;;;;;;;;;5055880;28;32158;-71
2021/04/07 03:55:47;;;;;;;7.20;1.92;;;;;;;;;;5058049;28;31807;-72
2021/04/07 03:58:13;;;;;;;5.63;1.80;;;;;;;;;;5059560;28;31928;-71
2021/04/07 04:00:39;;;;;;;10.50;2.13;;;;;;;;;;5059007;28;33193;-71
2021/04/07 04:03:05;;;;;;;8.75;1.60;;;;;;;;;;5055295;28;32378;-71
2021/04/07 04:05:30;;;;;;;8.57;1.52;;;;;;;;;;5057295;28;32320;-71
2021/04/07 04:07:56;;;;;;;11.68;1.60;;;;;;;;;;5055809;28;31636;-71
2021/04/07 04:10:22;;;;;;;8.55;1.88;;;;;;;;;;5056596;28;32467;-71
2021/04/07 04:12:47;;;;;;;5.75;1.75;;;;;;;;;;5057806;28;32635;-70
2021/04/07 04:15:13;;;;;;;9.40;1.77;;;;;;;;;;5058279;28;32278;-71
2021/04/07 04:17:40;;;;;;;10.85;2.38;;;;;;;;;;5057871;28;31679;-71
2021/04/07 04:20:06;;;;;;;17.45;2.15;;;;;;;;;;5056663;28;32895;-71
2021/04/07 04:22:32;;;;;;;7.88;1.50;;;;;;;;;;5057347;28;32634;-71
2021/04/07 04:24:58;;;;;;;6.90;1.92;;;;;;;;;;5058176;28;32403;-71
2021/04/07 04:27:23;;;;;;;15.63;3.50;;;;;;;;;;5058730;28;31840;-71
2021/04/07 04:29:49;;;;;;;12.13;2.33;;;;;;;;;;5057880;28;31856;-71
2021/04/07 04:32:15;;;;;;;13.38;2.70;;;;;;;;;;5059085;28;32572;-71
2021/04/07 04:34:41;;;;;;;7.40;1.90;;;;;;;;;;5054167;28;32428;-71
2021/04/07 04:37:06;;;;;;;7.93;1.52;;;;;;;;;;5055332;28;31838;-71
2021/04/07 04:39:32;;;;;;;5.47;1.30;;;;;;;;;;5056493;28;32831;-71
2021/04/07 04:41:58;;;;;;;12.13;1.65;;;;;;;;;;5058072;28;32259;-71
2021/04/07 04:44:23;;;;;;;13.45;1.95;;;;;;;;;;5057517;28;32215;-71
2021/04/07 04:46:49;;;;;;;10.52;1.92;;;;;;;;;;5056342;28;32748;-71
2021/04/07 04:49:15;;;;;;;7.93;1.65;;;;;;;;;;5057921;28;32027;-70
2021/04/07 04:51:41;;;;;;;4.32;1.50;;;;;;;;;;5057752;28;32632;-71
2021/04/07 04:54:06;;;;;;;7.78;2.05;;;;;;;;;;5056767;28;32188;-71
2021/04/07 04:56:33;;;;;;;18.35;1.95;;;;;;;;;;5056678;28;31849;-72
2021/04/07 04:58:59;;;;;;;8.00;1.60;;;;;;;;;;5057307;28;32854;-72
2021/04/07 05:01:25;;;;;;;11.82;2.13;;;;;;;;;;5057056;28;32674;-71
2021/04/07 05:03:50;;;;;;;8.20;1.80;;;;;;;;;;5056920;28;32209;-71
2021/04/07 05:06:16;;;;;;;9.48;2.08;;;;;;;;;;5058230;28;32660;-71
2021/04/07 05:08:44;;;;;;;5.80;1.80;;;;;;;;;;5059717;28;32100;-72
2021/04/07 05:11:10;;;;;;;5.57;2.08;;;;;;;;;;5067844;28;32279;-72
2021/04/07 05:13:36;;;;;;;10.02;1.98;;;;;;;;;;5071293;28;32894;-72
2021/04/07 05:16:01;;;;;;;10.68;1.90;;;;;;;;;;5069148;28;31714;-72
2021/04/07 05:18:27;;;;;;;11.23;2.22;;;;;;;;;;5069857;28;32162;-72
2021/04/07 05:20:54;;;;;;;5.15;1.40;;;;;;;;;;5070882;28;32781;-72
2021/04/07 05:23:20;;;;;;;6.05;1.70;;;;;;;;;;5069779;28;32001;-72
2021/04/07 05:25:45;;;;;;;8.90;1.73;;;;;;;;;;5069759;28;32092;-72
2021/04/07 05:28:11;;;;;;;7.72;1.40;;;;;;;;;;5063360;28;33042;-72
2021/04/07 05:33:22;;;;;;;5.60;1.73;;;;;;;;;;5061662;28;31917;-72
2021/04/07 05:35:48;;;;;;;5.95;1.50;;;;;;;;;;5062330;28;31874;-71
2021/04/07 05:38:13;;;;;;;6.68;1.58;;;;;;;;;;5060115;28;32079;-70
2021/04/07 05:40:40;;;;;;;6.60;1.33;;;;;;;;;;5058336;28;32531;-72
2021/04/07 05:43:06;;;;;;;11.18;1.40;;;;;;;;;;5059724;28;32283;-70
2021/04/07 05:45:31;;;;;;;7.13;1.63;;;;;;;;;;5060120;28;31939;-72
2021/04/07 05:47:57;;;;;;;10.98;2.03;;;;;;;;;;5063034;28;32101;-70
2021/04/07 05:50:23;;;;;;;6.05;1.40;;;;;;;;;;5069100;28;33382;-70
2021/04/07 05:52:49;;;;;;;3.97;1.17;;;;;;;;;;5068825;28;31892;-69
2021/04/07 05:55:15;;;;;;;4.57;1.33;;;;;;;;;;5068201;28;32084;-69
2021/04/07 05:57:41;;;;;;;7.60;1.48;;;;;;;;;;5072222;28;32672;-70
2021/04/07 06:00:07;;;;;;;4.00;1.40;;;;;;;;;;5065314;28;32724;-71
2021/04/07 06:02:33;;;;;;;4.72;1.52;;;;;;;;;;5059876;28;33185;-71
2021/04/07 06:04:59;;;;;;;3.10;0.80;;;;;;;;;;5060373;28;32110;-71
2021/04/07 06:07:24;;;;;;;6.25;1.05;;;;;;;;;;5060403;28;31983;-70
2021/04/07 06:09:50;;;;;;;3.58;0.93;;;;;;;;;;5057467;28;33349;-71
2021/04/07 06:12:16;;;;;;;10.40;1.58;;;;;;;;;;5059042;28;32277;-71
2021/04/07 06:14:41;;;;;;;4.72;1.30;;;;;;;;;;5057984;28;32489;-73
2021/04/07 06:17:07;;;;;;;7.53;1.17;;;;;;;;;;5059247;28;31976;-72
2021/04/07 06:19:33;;;;;;;5.88;0.80;;;;;;;;;;5057277;28;32362;-73
2021/04/07 06:21:58;;;;;;;3.55;0.90;;;;;;;;;;5058532;28;32763;-72
2021/04/07 06:24:24;;;;;;;2.83;1.10;;;;;;;;;;5060525;28;32000;-72
2021/04/07 06:26:49;;;;;;;2.05;0.75;;;;;;;;;;5058150;28;32054;-72
2021/04/07 06:29:15;;;;;;;5.43;1.15;;;;;;;;;;5058675;28;33249;-72
2021/04/07 06:31:41;;;;;;;7.15;1.27;;;;;;;;;;5058645;28;30573;-72
2021/04/07 06:34:07;;;;;;;7.35;1.50;;;;;;;;;;5059360;28;31867;-72
2021/04/07 06:36:32;;;;;;;4.53;1.55;;;;;;;;;;5058917;28;31914;-71
2021/04/07 06:38:59;;;;;;;5.57;1.20;;;;;;;;;;5057158;28;31853;-71
2021/04/07 06:41:25;;;;;;;6.45;1.50;;;;;;;;;;5059582;28;32284;-71
2021/04/07 06:43:51;;;;;;;3.15;1.13;;;;;;;;;;5058116;28;32901;-71
2021/04/07 06:46:19;;;;;;;10.65;1.70;;;;;;;;;;5062798;28;31885;-72
2021/04/07 06:48:46;;;;;;;8.75;1.30;;;;;;;;;;5061394;28;34125;-73
2021/04/07 06:51:14;;;;;;;9.73;1.33;;;;;;;;;;5061394;28;32078;-71
2021/04/07 06:53:42;;;;;;;17.02;1.80;;;;;;;;;;5058055;28;32788;-71
2021/04/07 06:56:10;;;;;;;5.75;1.40;;;;;;;;;;5059825;28;31713;-72
2021/04/07 06:58:36;;;;;;;6.07;1.30;;;;;;;;;;5056365;28;32532;-72
2021/04/07 07:01:01;;;;;;;4.57;1.30;;;;;;;;;;5056467;28;32758;-72
2021/04/07 07:03:27;;;;;;;4.82;1.33;;;;;;;;;;5056930;28;31910;-72
2021/04/07 07:05:55;;;;;;;7.13;1.20;;;;;;;;;;5058269;28;32022;-72
2021/04/07 07:08:21;;;;;;;6.15;1.20;;;;;;;;;;5057840;28;32536;-73
2021/04/07 07:10:48;;;;;;;9.20;1.70;;;;;;;;;;5056462;28;31008;-72
2021/04/07 07:13:24;;;;;;;5.20;1.40;;;;;;;;;;5058829;28;31940;-72
2021/04/07 07:15:50;;;;;;;5.65;1.55;;;;;;;;;;5057606;28;31968;-71
2021/04/07 07:18:22;;;;;;;6.95;1.98;;;;;;;;;;5066793;28;32667;-72
2021/04/07 07:20:48;;;;;;;5.47;1.33;;;;;;;;;;5076337;28;32816;-72
2021/04/07 07:23:20;;;;;;;10.68;2.03;;;;;;;;;;5074631;28;32818;-71
2021/04/07 07:25:57;;;;;;;8.02;1.52;;;;;;;;;;5054010;28;33004;-70
2021/04/07 07:28:23;;;;;;;3.97;1.17;;;;;;;;;;5058487;28;32572;-71
2021/04/07 07:30:49;;;;;;;9.30;2.20;;;;;;;;;;5050461;28;32190;-69
2021/04/07 07:33:20;;;;;;;9.40;1.55;;;;;;;;;;5064604;28;31116;-72
2021/04/07 07:35:46;;;;;;;7.68;1.40;;;;;;;;;;5061726;28;31521;-72
2021/04/07 07:38:23;;;;;;;10.05;2.03;;;;;;;;;;5053451;28;20592;-72
2021/04/07 07:40:48;;;;;;;6.85;1.77;;;;;;;;;;5065065;28;33173;-71
2021/04/07 07:43:14;;;;;;;8.55;1.70;;;;;;;;;;5066027;28;31652;-71
2021/04/07 07:45:41;;;;;;;5.68;1.38;;;;;;;;;;5054072;28;33012;-74
2021/04/07 07:48:11;;;;;;;7.72;2.13;;;;;;;;;;5056907;28;32265;-72
2021/04/07 07:50:38;;;;;;;10.95;2.58;;;;;;;;;;5047668;28;32269;-72
2021/04/07 07:53:13;;;;;;;12.13;1.98;;;;;;;;;;5049873;28;32047;-72
2021/04/07 07:55:39;;;;;;;9.25;1.95;;;;;;;;;;5048487;28;32732;-71
2021/04/07 07:58:05;;;;;;;6.30;2.10;;;;;;;;;;5057542;28;33184;-72
2021/04/07 08:00:31;;;;;;;5.40;1.55;;;;;;;;;;5050864;28;31754;-71
2021/04/07 08:03:07;;;;;;;12.10;1.83;;;;;;;;;;5055208;28;31968;-71
2021/04/07 08:05:33;;;;;;;9.82;2.05;;;;;;;;;;5060370;28;32157;-71
2021/04/07 08:07:58;;;;;;;8.63;2.22;;;;;;;;;;5057794;28;32318;-71
2021/04/07 08:10:24;;;;;;;11.48;2.00;;;;;;;;;;5053440;28;32441;-72
2021/04/07 08:12:50;;;;;;;10.40;1.90;;;;;;;;;;5057433;28;32343;-73
2021/04/07 08:15:16;;;;;;;12.30;2.45;;;;;;;;;;5052893;28;32083;-71
2021/04/07 08:17:42;;;;;;;7.18;1.98;;;;;;;;;;5054772;28;32641;-71
2021/04/07 08:20:08;;;;;;;15.25;2.38;;;;;;;;;;5051649;28;32364;-70
2021/04/07 08:22:34;;;;;;;7.63;1.63;;;;;;;;;;5059484;28;32838;-71
2021/04/07 08:25:01;;;;;;;8.88;1.77;;;;;;;;;;5056230;28;32329;-71
2021/04/07 08:27:27;;;;;;;8.73;1.85;;;;;;;;;;5052296;28;35672;-70
2021/04/07 08:29:53;;;;;;;7.97;2.50;;;;;;;;;;5054939;28;33168;-70
2021/04/07 08:32:20;;;;;;;9.90;2.08;;;;;;;;;;5056173;28;32919;-72
2021/04/07 08:34:46;;;;;;;11.48;2.30;;;;;;;;;;5052348;28;31912;-71
2021/04/07 08:37:17;;;;;;;7.78;2.35;;;;;;;;;;5048998;28;34935;-70
2021/04/07 08:39:43;;;;;;;9.15;2.17;;;;;;;;;;5053815;28;32018;-70
2021/04/07 08:42:10;;;;;;;9.75;1.92;;;;;;;;;;5054663;28;31514;-71
2021/04/07 08:44:41;;;;;;;14.00;2.20;;;;;;;;;;5055392;28;31853;-70
2021/04/07 08:47:10;;;;;;;18.35;2.78;;;;;;;;;;5054482;28;33247;-70
2021/04/07 08:49:36;;;;;;;10.20;2.33;;;;;;;;;;5045991;28;31963;-69
2021/04/07 08:52:18;;;;;;;11.48;2.55;;;;;;;;;;5050270;28;32785;-71
2021/04/07 08:54:44;;;;;;;10.85;2.28;;;;;;;;;;5051843;28;31855;-71
2021/04/07 08:57:23;;;;;;;9.73;3.17;;;;;;;;;;5051949;28;31557;-71
2021/04/07 08:59:51;;;;;;;9.50;1.98;;;;;;;;;;5050585;28;31825;-71
2021/04/07 09:02:17;;;;;;;11.20;2.38;;;;;;;;;;5050249;28;31564;-70
2021/04/07 09:04:46;;;;;;;10.32;2.28;;;;;;;;;;5051455;28;31619;-71
2021/04/07 09:07:12;;;;;;;10.43;2.40;;;;;;;;;;5048974;28;32606;-71
2021/04/07 09:09:38;;;;;;;18.35;2.33;;;;;;;;;;5049763;28;32362;-71
2021/04/07 09:12:05;;;;;;;8.50;2.40;;;;;;;;;;5050753;28;32519;-71
2021/04/07 09:14:34;;;;;;;16.40;3.05;;;;;;;;;;5051538;28;32994;-69
2021/04/07 09:17:03;;;;;;;14.73;2.67;;;;;;;;;;5052144;28;33185;-71
2021/04/07 09:19:30;;;;;;;12.10;2.72;;;;;;;;;;5050627;28;31928;-71
2021/04/07 09:21:58;;;;;;;11.80;2.10;;;;;;;;;;5050663;28;32080;-70
2021/04/07 09:24:27;;;;;;;8.73;1.98;;;;;;;;;;5050543;28;32849;-71
2021/04/07 09:26:53;;;;;;;12.15;2.33;;;;;;;;;;5048602;28;32549;-71
2021/04/07 09:29:19;;;;;;;12.77;3.15;;;;;;;;;;5050187;28;31996;-71
2021/04/07 09:31:45;;;;;;;17.90;3.67;;;;;;;;;;5052483;28;31618;-71
2021/04/07 09:34:13;;;;;;;16.38;2.80;;;;;;;;;;5055658;28;31690;-70
2021/04/07 09:36:41;;;;;;;15.52;3.90;;;;;;;;;;5051361;28;32281;-70
2021/04/07 09:39:10;;;;;;;11.50;2.45;;;;;;;;;;5050506;28;32824;-71
2021/04/07 09:41:37;;;;;;;13.35;3.50;;;;;;;;;;5050241;28;32993;-71
2021/04/07 09:44:04;;;;;;;11.50;3.20;;;;;;;;;;5050471;28;30251;-70
2021/04/07 09:46:30;;;;;;;12.75;3.00;;;;;;;;;;5048964;28;32676;-70
2021/04/07 09:49:00;;;;;;;13.73;2.72;;;;;;;;;;5049688;28;32233;-70
2021/04/07 09:51:25;;;;;;;9.63;3.10;;;;;;;;;;5049065;28;30506;-70
2021/04/07 09:54:13;;;;;;;13.01;2.40;;;;;;;;;;1043923;28;10508582;-71
2021/04/07 09:56:55;;;;;;;11.87;2.53;;;;;;;;;;872466;28;16640893;-71
2021/04/07 09:59:44;;;;;;;18.30;3.40;;;;;;;;;;19;7506367;9008803;-69
2021/04/07 10:02:22;;;;;;;17.80;4.10;;;;;;;;;;19;7334378;9027868;-70
2021/04/07 10:04:48;;;;;;;8.13;3.22;;;;;;;;;;308229;28;9036005;-70
2021/04/07 10:07:30;;;;;;;9.37;2.42;;;;;;;;;;450628;28;11485514;-71
2021/04/07 10:10:07;;;;;;;16.75;2.85;;;;;;;;;;16;7129280;12010189;-70
2021/04/07 10:12:53;;;;;;;11.89;2.84;;;;;;;;;;527413;28;12189977;-71
2021/04/07 10:15:19;;;;;;;20.47;2.77;;;;;;;;;;1717805;28;13131475;-70
2021/04/07 10:17:47;;;;;;;13.42;3.32;;;;;;;;;;2919534;28;11641732;-70
2021/04/07 10:20:26;;;;;;;17.47;2.79;;;;;;;;;;2060044;28;9008764;-70
2021/04/07 10:23:04;;;;;;;16.74;3.30;;;;;;;;;;2279830;28;9026395;-71
2021/04/07 10:25:30;;;;;;;11.98;2.05;;;;;;;;;;3325848;28;9611859;-70
2021/04/07 10:28:01;;;;;;;15.40;3.28;;;;;;;;;;4856362;28;1980981;-70
2021/04/07 10:30:35;;;;;;;15.80;3.08;;;;;;;;;;4997860;28;745680;-70
2021/04/07 10:33:01;;;;;;;11.35;2.38;;;;;;;;;;4892721;28;1797587;-71
2021/04/07 10:35:28;;;;;;;20.75;3.28;;;;;;;;;;4780861;28;5129147;-71
2021/04/07 10:37:54;;;;;;;11.07;2.65;;;;;;;;;;5053449;28;34083;-70
2021/04/07 10:40:21;;;;;;;17.13;3.17;;;;;;;;;;5053368;28;31997;-71
2021/04/07 10:42:47;;;;;;;13.98;2.22;;;;;;;;;;5053526;28;42362;-70
2021/04/07 10:45:14;;;;;;;15.10;3.70;;;;;;;;;;5053156;28;31974;-71
2021/04/07 10:47:39;;;;;;;10.98;2.83;;;;;;;;;;5053779;28;32527;-71
2021/04/07 10:50:06;;;;;;;10.57;2.10;;;;;;;;;;5052608;28;30652;-71
2021/04/07 10:52:33;;;;;;;9.80;2.22;;;;;;;;;;5053725;28;31767;-70
2021/04/07 10:54:59;;;;;;;11.80;2.30;;;;;;;;;;5053898;28;32240;-71
2021/04/07 10:57:32;;;;;;;12.75;2.38;;;;;;;;;;5053254;28;33262;-71
2021/04/07 10:59:57;;;;;;;15.77;2.72;;;;;;;;;;5035335;28;30308;-70
2021/04/07 11:02:23;;;;;;;15.30;2.95;;;;;;;;;;5052462;28;31875;-71
2021/04/07 11:04:49;;;;;;;9.38;1.60;;;;;;;;;;5053270;28;30447;-71
2021/04/07 11:07:18;;;;;;;11.82;2.38;;;;;;;;;;5053040;28;32432;-71
2021/04/07 11:09:47;;;;;;;15.77;2.22;;;;;;;;;;5052926;28;32176;-71
2021/04/07 11:12:14;;;;;;;9.05;2.80;;;;;;;;;;5054008;28;31587;-71
2021/04/07 11:14:41;;;;;;;7.85;2.60;;;;;;;;;;5052464;28;30378;-71
2021/04/07 11:17:13;;;;;;;11.35;2.85;;;;;;;;;;5052236;28;33252;-72
2021/04/07 11:19:39;;;;;;;11.10;2.13;;;;;;;;;;5051814;28;32349;-72
2021/04/07 11:22:05;;;;;;;15.57;2.33;;;;;;;;;;5051129;28;31598;-72
2021/04/07 11:24:31;;;;;;;14.05;2.80;;;;;;;;;;5052973;28;32418;-72
2021/04/07 11:26:57;;;;;;;12.65;2.42;;;;;;;;;;5052504;28;32536;-72
2021/04/07 11:29:23;;;;;;;8.88;1.65;;;;;;;;;;5052638;28;31909;-72
2021/04/07 11:31:54;;;;;;;12.45;2.22;;;;;;;;;;5052739;28;31451;-72
2021/04/07 11:34:29;;;;;;;15.48;2.53;;;;;;;;;;5052527;28;32683;-72
2021/04/07 11:42:07;;;;;;;6.70;2.00;;;;;;;;;;5052735;28;31996;-72
2021/04/07 11:44:33;;;;;;;13.85;2.80;;;;;;;;;;5052567;28;32772;-71
2021/04/07 11:47:00;;;;;;;11.82;2.15;;;;;;;;;;5050507;28;32541;-71
2021/04/07 11:49:26;;;;;;;8.38;2.42;;;;;;;;;;5050882;28;32149;-70
2021/04/07 11:51:52;;;;;;;14.57;2.00;;;;;;;;;;5052046;28;31816;-70
2021/04/07 11:54:18;;;;;;;9.38;1.95;;;;;;;;;;5053438;28;31480;-71
2021/04/07 11:56:45;;;;;;;10.57;2.15;;;;;;;;;;5054289;28;32281;-71
2021/04/07 11:59:12;;;;;;;15.50;3.25;;;;;;;;;;5055338;28;32319;-71
2021/04/07 12:01:38;;;;;;;7.00;1.80;;;;;;;;;;5055323;28;31715;-71
2021/04/07 12:04:04;;;;;;;11.57;2.78;;;;;;;;;;5054971;28;32196;-71
2021/04/07 12:06:30;;;;;;;9.20;1.73;;;;;;;;;;5056757;28;32105;-72
2021/04/07 12:08:55;;;;;;;13.35;2.38;;;;;;;;;;5055477;28;32188;-71
2021/04/07 12:11:21;;;;;;;8.60;1.58;;;;;;;;;;5054455;28;33090;-71
2021/04/07 12:13:47;;;;;;;7.88;1.90;;;;;;;;;;5049689;28;30603;-72
2021/04/07 12:16:13;;;;;;;10.18;2.03;;;;;;;;;;5051289;28;32332;-71
2021/04/07 12:18:38;;;;;;;16.63;2.75;;;;;;;;;;5052274;28;31660;-71
2021/04/07 12:21:04;;;;;;;3.28;0.47;;;;;;;;;;5052122;28;31954;-74
2021/04/07 12:23:30;;;;;;;12.32;2.22;;;;;;;;;;5052344;28;32115;-70
2021/04/07 12:25:57;;;;;;;8.95;2.05;;;;;;;;;;5049880;28;33566;-69
2021/04/07 12:28:23;;;;;;;5.00;1.67;;;;;;;;;;5052182;28;32307;-69
2021/04/07 12:30:49;;;;;;;14.48;2.05;;;;;;;;;;5051513;28;31962;-69
2021/04/07 12:33:16;;;;;;;14.00;2.10;;;;;;;;;;5052491;28;32169;-69
2021/04/07 12:35:59;;;;;;;15.15;2.25;;;;;;;;;;5051301;28;32821;-69
2021/04/07 12:38:26;;;;;;;0.47;0.30;;;;;;;;;;5053256;28;31982;-68
2021/04/07 12:40:55;;;;;;;14.77;1.75;;;;;;;;;;5050065;28;37461;-69
2021/04/07 12:43:21;;;;;;;10.80;2.40;;;;;;;;;;5051335;28;31999;-69
2021/04/07 12:45:47;;;;;;;14.20;2.17;;;;;;;;;;5050947;28;32044;-69
2021/04/07 12:48:12;;;;;;;12.90;1.95;;;;;;;;;;5051773;28;32570;-69
2021/04/07 12:50:38;;;;;;;12.27;1.60;;;;;;;;;;5052495;28;32973;-68
2021/04/07 12:53:05;;;;;;;15.95;1.95;;;;;;;;;;5051900;28;31607;-69
2021/04/07 12:55:31;;;;;;;7.82;1.83;;;;;;;;;;5051463;28;32750;-69
2021/04/07 12:57:59;;;;;;;11.15;2.00;;;;;;;;;;5052400;28;33136;-68
2021/04/07 13:00:26;;;;;;;8.70;1.98;;;;;;;;;;5051620;28;32155;-69
2021/04/07 13:02:51;;;;;;;9.10;1.45;;;;;;;;;;5052385;28;31354;-69
2021/04/07 13:05:17;;;;;;;12.13;1.77;;;;;;;;;;5051074;28;32241;-69
2021/04/07 13:07:43;;;;;;;8.77;1.50;;;;;;;;;;5052780;28;33277;-69
2021/04/07 13:10:09;;;;;;;9.18;2.03;;;;;;;;;;5051137;28;30738;-69
2021/04/07 13:12:35;;;;;;;11.23;1.90;;;;;;;;;;5051277;28;31884;-69
2021/04/07 13:15:00;;;;;;;8.10;1.73;;;;;;;;;;5051141;28;32418;-69
2021/04/07 13:17:26;;;;;;;8.88;2.03;;;;;;;;;;5051318;28;32393;-70
2021/04/07 13:19:54;;;;;;;7.78;1.60;;;;;;;;;;5049692;28;32015;-70
2021/04/07 13:22:20;;;;;;;8.80;1.98;;;;;;;;;;5050905;28;31810;-70
2021/04/07 13:24:46;;;;;;;14.55;2.50;;;;;;;;;;5050036;28;32169;-70
2021/04/07 13:27:12;;;;;;;11.13;2.53;;;;;;;;;;5051195;28;32070;-70
2021/04/07 13:29:38;;;;;;;7.32;1.50;;;;;;;;;;5054955;28;31437;-70
2021/04/07 13:32:05;;;;;;;9.43;2.10;;;;;;;;;;5053565;28;31802;-70
2021/04/07 13:34:55;;;;;;;6.75;1.60;;;;;;;;;;5053842;28;33619;-69
2021/04/07 13:45:05;;;;;;;8.98;1.65;;;;;;;;;;5052310;28;32169;-71
2021/04/07 13:47:31;;;;;;;8.63;1.98;;;;;;;;;;5052828;28;31745;-71
2021/04/07 13:49:56;;;;;;;7.50;2.08;;;;;;;;;;5051388;28;31605;-70
2021/04/07 13:52:22;;;;;;;7.53;2.13;;;;;;;;;;5052742;28;32054;-70
2021/04/07 13:54:49;;;;;;;6.60;1.83;;;;;;;;;;5054071;28;34751;-71
2021/04/07 13:57:28;;;;;;;9.27;1.77;;;;;;;;;;5052945;28;32382;-70
2021/04/07 14:00:05;;;;;;;10.45;1.80;;;;;;;;;;5052378;28;32840;-71
2021/04/07 14:02:35;;;;;;;8.35;1.92;;;;;;;;;;5055798;28;32936;-70
2021/04/07 14:05:00;;;;;;;21.23;4.38;;;;;;;;;;5054015;28;32436;-70
2021/04/07 14:07:27;;;;;;;5.88;1.60;;;;;;;;;;5056045;28;34773;-70
2021/04/07 14:09:52;;;;;;;6.20;1.02;;;;;;;;;;5056921;28;31609;-70
2021/04/07 14:12:25;;;;;;;6.28;1.80;;;;;;;;;;5053281;28;32720;-72
2021/04/07 14:14:51;;;;;;;7.80;1.73;;;;;;;;;;5055860;28;33602;-69
2021/04/07 14:17:16;;;;;;;12.80;1.80;;;;;;;;;;5055701;28;30612;-68
2021/04/07 14:19:42;;;;;;;5.50;1.30;;;;;;;;;;5055190;28;32606;-69
2021/04/07 14:22:08;;;;;;;5.75;1.50;;;;;;;;;;5055664;28;32073;-71
2021/04/07 14:24:34;;;;;;;6.18;1.58;;;;;;;;;;5055336;28;32556;-70
2021/04/07 14:27:03;;;;;;;8.25;1.58;;;;;;;;;;5055163;28;33174;-70
2021/04/07 14:29:29;;;;;;;12.02;1.90;;;;;;;;;;5052752;28;31934;-69
2021/04/07 14:31:55;;;;;;;9.10;1.88;;;;;;;;;;5052583;28;31712;-69
2021/04/07 14:34:21;;;;;;;6.95;1.95;;;;;;;;;;5053218;28;33264;-69
2021/04/07 14:36:46;;;;;;;8.68;1.63;;;;;;;;;;5052472;28;31904;-70
2021/04/07 14:39:12;;;;;;;8.05;1.50;;;;;;;;;;5053791;28;31914;-70
2021/04/07 14:41:38;;;;;;;6.22;1.67;;;;;;;;;;5052357;28;32043;-69
2021/04/07 14:44:04;;;;;;;10.63;1.65;;;;;;;;;;5051394;28;32532;-69
2021/04/07 14:46:30;;;;;;;5.45;1.45;;;;;;;;;;5051818;28;30872;-69
2021/04/07 14:48:57;;;;;;;4.38;1.42;;;;;;;;;;5052548;28;31530;-69
2021/04/07 14:51:27;;;;;;;8.02;1.63;;;;;;;;;;5051998;28;32041;-70
2021/04/07 14:56:52;;;;;;;10.00;1.73;;;;;;;;;;5049655;28;32275;-70